sensor_id;sensor_type;location;lat;lon;timestamp;pressure;altitude;pressure_sealevel;temperature;humidity
19783;BME280;10051;40.294;-3.754;2023-04-01T00:00:22;94598.81;;;15.40;46.36
19783;BME280;10051;40.294;-3.754;2023-04-01T00:02:48;94592.59;;;15.44;45.74
19783;BME280;10051;40.294;-3.754;2023-04-01T00:05:13;94631.81;;;15.56;45.83
19783;BME280;10051;40.294;-3.754;2023-04-01T00:07:40;94594.38;;;15.35;45.92
19783;BME280;10051;40.294;-3.754;2023-04-01T00:10:07;94614.28;;;15.46;45.84
19783;BME280;10051;40.294;-3.754;2023-04-01T00:12:36;94619.41;;;15.43;45.88
19783;BME280;10051;40.294;-3.754;2023-04-01T00:15:03;94602.53;;;15.25;46.28
19783;BME280;10051;40.294;-3.754;2023-04-01T00:17:29;94640.19;;;15.50;46.16
19783;BME280;10051;40.294;-3.754;2023-04-01T00:19:55;94633.53;;;15.38;46.17
19783;BME280;10051;40.294;-3.754;2023-04-01T00:22:22;94642.56;;;15.37;46.60
19783;BME280;10051;40.294;-3.754;2023-04-01T00:24:48;94640.47;;;15.48;46.11
19783;BME280;10051;40.294;-3.754;2023-04-01T00:27:14;94579.81;;;14.96;46.72
19783;BME280;10051;40.294;-3.754;2023-04-01T00:29:46;94648.06;;;15.27;46.93
19783;BME280;10051;40.294;-3.754;2023-04-01T00:32:13;94643.75;;;15.17;47.15
19783;BME280;10051;40.294;-3.754;2023-04-01T00:34:39;94648.19;;;15.22;46.58
19783;BME280;10051;40.294;-3.754;2023-04-01T00:37:05;94626.50;;;15.06;46.67
19783;BME280;10051;40.294;-3.754;2023-04-01T00:39:32;94653.94;;;15.24;46.46
19783;BME280;10051;40.294;-3.754;2023-04-01T00:41:59;94641.81;;;15.23;46.05
19783;BME280;10051;40.294;-3.754;2023-04-01T00:44:27;94648.06;;;15.27;46.24
19783;BME280;10051;40.294;-3.754;2023-04-01T00:46:53;94629.84;;;15.11;46.06
19783;BME280;10051;40.294;-3.754;2023-04-01T00:49:23;94597.19;;;14.88;46.16
19783;BME280;10051;40.294;-3.754;2023-04-01T00:51:53;94611.59;;;14.96;46.27
19783;BME280;10051;40.294;-3.754;2023-04-01T00:54:21;94649.06;;;15.17;46.46
19783;BME280;10051;40.294;-3.754;2023-04-01T00:56:52;94640.25;;;15.22;46.23
19783;BME280;10051;40.294;-3.754;2023-04-01T00:59:27;94642.00;;;15.12;46.17
19783;BME280;10051;40.294;-3.754;2023-04-01T01:01:54;94634.94;;;14.94;46.38
19783;BME280;10051;40.294;-3.754;2023-04-01T01:04:26;94641.22;;;14.98;46.48
19783;BME280;10051;40.294;-3.754;2023-04-01T01:15:31;94606.16;;;14.59;46.61
19783;BME280;10051;40.294;-3.754;2023-04-01T01:18:32;94634.25;;;14.74;46.65
19783;BME280;10051;40.294;-3.754;2023-04-01T01:29:34;94620.19;;;14.60;47.02
19783;BME280;10051;40.294;-3.754;2023-04-01T01:37:32;94573.13;;;14.42;46.69
19783;BME280;10051;40.294;-3.754;2023-04-01T01:40:03;94600.19;;;14.53;47.09
19783;BME280;10051;40.294;-3.754;2023-04-01T01:42:31;94614.97;;;14.54;47.33
19783;BME280;10051;40.294;-3.754;2023-04-01T01:45:01;94589.78;;;14.43;47.18
19783;BME280;10051;40.294;-3.754;2023-04-01T01:47:28;94588.19;;;14.28;47.13
19783;BME280;10051;40.294;-3.754;2023-04-01T01:49:55;94572.28;;;14.14;47.32
19783;BME280;10051;40.294;-3.754;2023-04-01T01:52:23;94617.03;;;14.43;47.22
19783;BME280;10051;40.294;-3.754;2023-04-01T01:54:54;94584.63;;;14.19;47.22
19783;BME280;10051;40.294;-3.754;2023-04-01T01:57:32;94619.25;;;14.36;47.48
19783;BME280;10051;40.294;-3.754;2023-04-01T02:00:08;94617.88;;;14.39;47.36
19783;BME280;10051;40.294;-3.754;2023-04-01T02:02:42;94614.84;;;14.32;47.66
19783;BME280;10051;40.294;-3.754;2023-04-01T02:05:14;94613.47;;;14.34;47.21
19783;BME280;10051;40.294;-3.754;2023-04-01T02:07:43;94564.59;;;13.98;47.19
19783;BME280;10051;40.294;-3.754;2023-04-01T02:10:12;94602.44;;;14.13;47.50
19783;BME280;10051;40.294;-3.754;2023-04-01T02:12:39;94609.66;;;14.26;47.20
19783;BME280;10051;40.294;-3.754;2023-04-01T02:15:09;94610.22;;;14.23;47.38
19783;BME280;10051;40.294;-3.754;2023-04-01T02:17:40;94610.88;;;14.15;47.34
19783;BME280;10051;40.294;-3.754;2023-04-01T02:22:44;94618.16;;;14.23;47.80
19783;BME280;10051;40.294;-3.754;2023-04-01T02:25:38;94590.47;;;14.02;48.30
19783;BME280;10051;40.294;-3.754;2023-04-01T02:28:06;94586.75;;;14.03;48.29
19783;BME280;10051;40.294;-3.754;2023-04-01T02:30:36;94575.97;;;13.99;48.44
19783;BME280;10051;40.294;-3.754;2023-04-01T02:33:05;94609.47;;;14.04;48.97
19783;BME280;10051;40.294;-3.754;2023-04-01T02:35:33;94591.00;;;13.85;49.13
19783;BME280;10051;40.294;-3.754;2023-04-01T02:38:01;94607.13;;;14.02;49.18
19783;BME280;10051;40.294;-3.754;2023-04-01T02:40:27;94597.25;;;14.08;49.13
19783;BME280;10051;40.294;-3.754;2023-04-01T02:42:52;94587.31;;;14.00;49.19
19783;BME280;10051;40.294;-3.754;2023-04-01T02:45:18;94594.41;;;14.04;49.14
19783;BME280;10051;40.294;-3.754;2023-04-01T02:47:43;94574.94;;;13.81;49.07
19783;BME280;10051;40.294;-3.754;2023-04-01T02:50:09;94563.03;;;13.64;49.19
19783;BME280;10051;40.294;-3.754;2023-04-01T02:52:35;94622.16;;;13.88;49.30
19783;BME280;10051;40.294;-3.754;2023-04-01T02:55:01;94601.66;;;13.79;49.23
19783;BME280;10051;40.294;-3.754;2023-04-01T02:57:27;94583.25;;;13.55;49.18
19783;BME280;10051;40.294;-3.754;2023-04-01T02:59:55;94583.25;;;13.55;49.36
19783;BME280;10051;40.294;-3.754;2023-04-01T03:02:21;94581.91;;;13.58;49.25
19783;BME280;10051;40.294;-3.754;2023-04-01T03:04:46;94604.22;;;13.85;48.77
19783;BME280;10051;40.294;-3.754;2023-04-01T03:07:12;94611.72;;;13.77;48.81
19783;BME280;10051;40.294;-3.754;2023-04-01T03:09:38;94605.94;;;13.75;48.99
19783;BME280;10051;40.294;-3.754;2023-04-01T03:12:04;94613.09;;;13.75;49.25
19783;BME280;10051;40.294;-3.754;2023-04-01T03:14:30;94608.81;;;13.79;48.83
19783;BME280;10051;40.294;-3.754;2023-04-01T03:16:55;94599.66;;;13.71;48.77
19783;BME280;10051;40.294;-3.754;2023-04-01T03:19:21;94593.09;;;13.68;48.83
19783;BME280;10051;40.294;-3.754;2023-04-01T03:21:46;94589.94;;;13.66;48.87
19783;BME280;10051;40.294;-3.754;2023-04-01T03:24:12;94613.03;;;13.80;49.06
19783;BME280;10051;40.294;-3.754;2023-04-01T03:26:38;94579.38;;;13.66;48.74
19783;BME280;10051;40.294;-3.754;2023-04-01T03:29:05;94526.13;;;13.21;48.75
19783;BME280;10051;40.294;-3.754;2023-04-01T03:31:30;94566.38;;;13.51;48.87
19783;BME280;10051;40.294;-3.754;2023-04-01T03:33:56;94593.47;;;13.62;49.29
19783;BME280;10051;40.294;-3.754;2023-04-01T03:36:21;94600.66;;;13.56;49.23
19783;BME280;10051;40.294;-3.754;2023-04-01T03:38:47;94566.09;;;13.33;49.47
19783;BME280;10051;40.294;-3.754;2023-04-01T03:41:14;94579.09;;;13.49;49.39
19783;BME280;10051;40.294;-3.754;2023-04-01T03:43:40;94584.50;;;13.38;49.40
19783;BME280;10051;40.294;-3.754;2023-04-01T03:46:06;94571.28;;;13.44;49.46
19783;BME280;10051;40.294;-3.754;2023-04-01T03:48:32;94581.09;;;13.57;49.43
19783;BME280;10051;40.294;-3.754;2023-04-01T03:50:57;94568.59;;;13.24;49.91
19783;BME280;10051;40.294;-3.754;2023-04-01T03:53:23;94568.38;;;13.21;50.19
19783;BME280;10051;40.294;-3.754;2023-04-01T03:55:49;94596.72;;;13.34;50.24
19783;BME280;10051;40.294;-3.754;2023-04-01T03:58:16;94602.78;;;13.35;50.39
19783;BME280;10051;40.294;-3.754;2023-04-01T04:00:42;94603.63;;;13.30;50.44
19783;BME280;10051;40.294;-3.754;2023-04-01T04:03:08;94594.84;;;13.16;50.47
19783;BME280;10051;40.294;-3.754;2023-04-01T04:05:33;94622.97;;;13.26;50.86
19783;BME280;10051;40.294;-3.754;2023-04-01T04:07:59;94587.97;;;12.96;50.94
19783;BME280;10051;40.294;-3.754;2023-04-01T04:10:25;94593.06;;;13.11;51.15
19783;BME280;10051;40.294;-3.754;2023-04-01T04:12:51;94584.91;;;13.07;51.18
19783;BME280;10051;40.294;-3.754;2023-04-01T04:15:17;94595.28;;;13.23;50.89
19783;BME280;10051;40.294;-3.754;2023-04-01T04:17:44;94573.66;;;13.21;50.71
19783;BME280;10051;40.294;-3.754;2023-04-01T04:20:10;94561.50;;;13.20;50.12
19783;BME280;10051;40.294;-3.754;2023-04-01T04:22:36;94558.66;;;13.16;50.31
19783;BME280;10051;40.294;-3.754;2023-04-01T04:25:03;94597.41;;;13.40;50.39
19783;BME280;10051;40.294;-3.754;2023-04-01T04:27:28;94598.97;;;13.46;49.99
19783;BME280;10051;40.294;-3.754;2023-04-01T04:29:55;94563.63;;;12.99;50.11
19783;BME280;10051;40.294;-3.754;2023-04-01T04:32:20;94597.56;;;13.30;50.39
19783;BME280;10051;40.294;-3.754;2023-04-01T04:34:46;94569.06;;;13.07;50.36
19783;BME280;10051;40.294;-3.754;2023-04-01T04:37:11;94581.38;;;13.17;50.40
19783;BME280;10051;40.294;-3.754;2023-04-01T04:39:37;94610.69;;;13.35;50.39
19783;BME280;10051;40.294;-3.754;2023-04-01T04:42:02;94597.72;;;13.19;50.85
19783;BME280;10051;40.294;-3.754;2023-04-01T04:44:28;94570.22;;;13.01;50.93
19783;BME280;10051;40.294;-3.754;2023-04-01T04:46:54;94587.28;;;13.09;51.01
19783;BME280;10051;40.294;-3.754;2023-04-01T04:49:19;94562.34;;;12.96;50.93
19783;BME280;10051;40.294;-3.754;2023-04-01T04:51:47;94596.34;;;13.22;50.75
19783;BME280;10051;40.294;-3.754;2023-04-01T04:54:13;94598.28;;;13.16;51.11
19783;BME280;10051;40.294;-3.754;2023-04-01T04:56:38;94570.56;;;13.14;50.87
19783;BME280;10051;40.294;-3.754;2023-04-01T04:59:05;94600.50;;;13.28;50.77
19783;BME280;10051;40.294;-3.754;2023-04-01T05:01:30;94599.28;;;13.20;50.76
19783;BME280;10051;40.294;-3.754;2023-04-01T05:03:56;94586.50;;;13.28;50.77
19783;BME280;10051;40.294;-3.754;2023-04-01T05:06:21;94573.28;;;13.08;51.21
19783;BME280;10051;40.294;-3.754;2023-04-01T05:08:47;94595.06;;;13.19;51.09
19783;BME280;10051;40.294;-3.754;2023-04-01T05:11:16;94586.75;;;13.07;51.04
19783;BME280;10051;40.294;-3.754;2023-04-01T05:13:42;94583.84;;;13.08;50.68
19783;BME280;10051;40.294;-3.754;2023-04-01T05:16:13;94589.31;;;12.93;50.83
19783;BME280;10051;40.294;-3.754;2023-04-01T05:18:39;94604.66;;;12.91;50.57
19783;BME280;10051;40.294;-3.754;2023-04-01T05:21:07;94597.25;;;12.93;50.68
19783;BME280;10051;40.294;-3.754;2023-04-01T05:23:33;94603.72;;;13.01;50.69
19783;BME280;10051;40.294;-3.754;2023-04-01T05:26:03;94608.81;;;12.97;50.16
19783;BME280;10051;40.294;-3.754;2023-04-01T05:28:28;94559.69;;;12.77;49.11
19783;BME280;10051;40.294;-3.754;2023-04-01T05:30:54;94556.75;;;12.78;48.48
19783;BME280;10051;40.294;-3.754;2023-04-01T05:33:19;94594.44;;;13.03;48.15
19783;BME280;10051;40.294;-3.754;2023-04-01T05:35:45;94598.75;;;12.99;48.40
19783;BME280;10051;40.294;-3.754;2023-04-01T05:38:10;94587.75;;;12.92;48.61
19783;BME280;10051;40.294;-3.754;2023-04-01T05:40:36;94549.41;;;12.75;48.38
19783;BME280;10051;40.294;-3.754;2023-04-01T05:43:02;94591.91;;;12.98;48.56
19783;BME280;10051;40.294;-3.754;2023-04-01T05:45:27;94611.31;;;13.07;48.17
19783;BME280;10051;40.294;-3.754;2023-04-01T05:47:53;94615.00;;;13.06;48.40
19783;BME280;10051;40.294;-3.754;2023-04-01T05:50:19;94578.31;;;12.86;48.34
19783;BME280;10051;40.294;-3.754;2023-04-01T05:52:45;94616.94;;;13.01;47.88
19783;BME280;10051;40.294;-3.754;2023-04-01T05:55:11;94621.94;;;13.02;47.94
19783;BME280;10051;40.294;-3.754;2023-04-01T05:57:36;94621.94;;;13.02;47.64
19783;BME280;10051;40.294;-3.754;2023-04-01T06:00:03;94619.88;;;12.99;47.79
19783;BME280;10051;40.294;-3.754;2023-04-01T06:02:29;94620.19;;;12.92;47.71
19783;BME280;10051;40.294;-3.754;2023-04-01T06:05:03;94618.84;;;12.95;47.92
19783;BME280;10051;40.294;-3.754;2023-04-01T06:07:36;94612.56;;;12.91;48.12
19783;BME280;10051;40.294;-3.754;2023-04-01T06:10:10;94624.75;;;12.87;48.03
19783;BME280;10051;40.294;-3.754;2023-04-01T06:12:58;94648.81;;;13.04;48.06
19783;BME280;10051;40.294;-3.754;2023-04-01T06:15:59;94642.06;;;12.98;48.12
19783;BME280;10051;40.294;-3.754;2023-04-01T06:18:47;94654.56;;;13.12;48.28
19783;BME280;10051;40.294;-3.754;2023-04-01T06:35:20;94671.28;;;13.50;47.38
19783;BME280;10051;40.294;-3.754;2023-04-01T06:38:09;94670.16;;;13.57;47.30
19783;BME280;10051;40.294;-3.754;2023-04-01T06:43:50;94647.22;;;13.52;47.66
19783;BME280;10051;40.294;-3.754;2023-04-01T06:49:00;94649.66;;;13.87;46.72
19783;BME280;10051;40.294;-3.754;2023-04-01T06:56:37;94640.72;;;13.82;46.52
19783;BME280;10051;40.294;-3.754;2023-04-01T07:01:42;94635.09;;;13.89;46.84
19783;BME280;10051;40.294;-3.754;2023-04-01T07:04:31;94640.84;;;14.10;46.37
19783;BME280;10051;40.294;-3.754;2023-04-01T07:07:00;94636.78;;;13.99;45.62
19783;BME280;10051;40.294;-3.754;2023-04-01T07:09:38;94656.59;;;14.35;45.40
19783;BME280;10051;40.294;-3.754;2023-04-01T07:12:48;94676.34;;;14.56;44.89
19783;BME280;10051;40.294;-3.754;2023-04-01T07:15:22;94672.88;;;14.75;44.42
19783;BME280;10051;40.294;-3.754;2023-04-01T07:18:05;94655.31;;;14.79;43.62
19783;BME280;10051;40.294;-3.754;2023-04-01T07:20:37;94652.56;;;14.84;43.42
19783;BME280;10051;40.294;-3.754;2023-04-01T07:23:21;94675.25;;;14.91;43.39
19783;BME280;10051;40.294;-3.754;2023-04-01T07:25:51;94676.50;;;14.79;43.71
19783;BME280;10051;40.294;-3.754;2023-04-01T07:28:18;94654.19;;;14.52;43.85
19783;BME280;10051;40.294;-3.754;2023-04-01T07:31:05;94680.25;;;14.78;44.14
19783;BME280;10051;40.294;-3.754;2023-04-01T07:36:39;94668.31;;;14.62;44.69
19783;BME280;10051;40.294;-3.754;2023-04-01T07:39:17;94692.19;;;14.90;43.85
19783;BME280;10051;40.294;-3.754;2023-04-01T07:42:08;94689.06;;;14.87;43.45
19783;BME280;10051;40.294;-3.754;2023-04-01T07:48:06;94682.78;;;14.83;44.30
19783;BME280;10051;40.294;-3.754;2023-04-01T07:50:29;94639.19;;;14.62;44.38
19783;BME280;10051;40.294;-3.754;2023-04-01T07:55:46;94657.09;;;14.84;44.49
19783;BME280;10051;40.294;-3.754;2023-04-01T07:58:37;94652.00;;;14.87;44.23
19783;BME280;10051;40.294;-3.754;2023-04-01T08:09:17;94654.53;;;14.93;44.20
19783;BME280;10051;40.294;-3.754;2023-04-01T08:12:17;94652.19;;;15.05;44.10
19783;BME280;10051;40.294;-3.754;2023-04-01T08:14:55;94662.22;;;15.08;44.54
19783;BME280;10051;40.294;-3.754;2023-04-01T08:22:58;94586.69;;;14.69;43.77
19783;BME280;10051;40.294;-3.754;2023-04-01T08:25:28;94636.72;;;15.12;44.21
19783;BME280;10051;40.294;-3.754;2023-04-01T08:31:04;94638.28;;;15.13;43.44
19783;BME280;10051;40.294;-3.754;2023-04-01T08:33:32;94636.13;;;15.15;44.50
19783;BME280;10051;40.294;-3.754;2023-04-01T08:36:29;94652.50;;;15.31;44.02
19783;BME280;10051;40.294;-3.754;2023-04-01T08:39:04;94622.94;;;15.38;44.17
19783;BME280;10051;40.294;-3.754;2023-04-01T08:41:42;94644.31;;;15.56;43.70
19783;BME280;10051;40.294;-3.754;2023-04-01T09:02:08;94665.50;;;15.56;44.32
19783;BME280;10051;40.294;-3.754;2023-04-01T09:08:02;94693.03;;;15.83;44.08
19783;BME280;10051;40.294;-3.754;2023-04-01T09:13:16;94689.41;;;15.93;43.38
19783;BME280;10051;40.294;-3.754;2023-04-01T09:24:25;94696.25;;;16.08;43.80
19783;BME280;10051;40.294;-3.754;2023-04-01T09:27:04;94703.94;;;16.18;43.58
19783;BME280;10051;40.294;-3.754;2023-04-01T09:38:01;94708.38;;;16.45;43.16
19783;BME280;10051;40.294;-3.754;2023-04-01T09:40:56;94716.22;;;16.50;43.15
19783;BME280;10051;40.294;-3.754;2023-04-01T09:44:02;94718.44;;;16.57;43.37
19783;BME280;10051;40.294;-3.754;2023-04-01T09:46:51;94695.97;;;16.63;42.34
19783;BME280;10051;40.294;-3.754;2023-04-01T10:30:38;94676.59;;;17.26;40.66
19783;BME280;10051;40.294;-3.754;2023-04-01T10:36:33;94681.66;;;17.45;40.22
19783;BME280;10051;40.294;-3.754;2023-04-01T10:47:57;94679.09;;;17.22;40.67
19783;BME280;10051;40.294;-3.754;2023-04-01T11:05:28;94658.72;;;17.67;40.63
19783;BME280;10051;40.294;-3.754;2023-04-01T11:22:41;94640.13;;;18.20;40.47
19783;BME280;10051;40.294;-3.754;2023-04-01T11:25:40;94645.41;;;18.37;40.66
19783;BME280;10051;40.294;-3.754;2023-04-01T11:28:26;94637.13;;;18.39;40.19
19783;BME280;10051;40.294;-3.754;2023-04-01T11:33:35;94630.97;;;18.56;39.85
19783;BME280;10051;40.294;-3.754;2023-04-01T11:36:42;94638.78;;;18.61;39.57
19783;BME280;10051;40.294;-3.754;2023-04-01T11:42:49;94646.00;;;18.52;39.59
19783;BME280;10051;40.294;-3.754;2023-04-01T11:45:39;94649.31;;;18.49;39.92
19783;BME280;10051;40.294;-3.754;2023-04-01T12:11:00;94636.28;;;20.27;37.51
19783;BME280;10051;40.294;-3.754;2023-04-01T12:14:02;94613.38;;;20.39;37.56
19783;BME280;10051;40.294;-3.754;2023-04-01T12:34:08;94621.66;;;21.29;34.77
19783;BME280;10051;40.294;-3.754;2023-04-01T12:41:53;94610.06;;;20.42;36.17
19783;BME280;10051;40.294;-3.754;2023-04-01T12:55:16;94563.31;;;20.35;37.87
19783;BME280;10051;40.294;-3.754;2023-04-01T13:08:52;94493.53;;;21.12;35.98
19783;BME280;10051;40.294;-3.754;2023-04-01T13:11:40;94490.63;;;21.17;36.11
19783;BME280;10051;40.294;-3.754;2023-04-01T13:16:48;94486.59;;;21.35;35.16
19783;BME280;10051;40.294;-3.754;2023-04-01T13:19:31;94422.28;;;21.03;34.81
19783;BME280;10051;40.294;-3.754;2023-04-01T13:22:11;94492.81;;;21.39;34.91
19783;BME280;10051;40.294;-3.754;2023-04-01T13:27:17;94466.06;;;21.39;34.68
19783;BME280;10051;40.294;-3.754;2023-04-01T13:32:22;94481.13;;;21.60;33.95
19783;BME280;10051;40.294;-3.754;2023-04-01T13:37:43;94492.94;;;21.72;33.64
19783;BME280;10051;40.294;-3.754;2023-04-01T13:43:20;94474.47;;;21.82;33.21
19783;BME280;10051;40.294;-3.754;2023-04-01T14:02:47;94450.16;;;22.04;33.61
19783;BME280;10051;40.294;-3.754;2023-04-01T14:11:25;94442.38;;;22.14;33.78
19783;BME280;10051;40.294;-3.754;2023-04-01T14:21:46;94422.94;;;22.18;33.76
19783;BME280;10051;40.294;-3.754;2023-04-01T14:24:36;94419.06;;;22.15;33.74
19783;BME280;10051;40.294;-3.754;2023-04-01T14:27:29;94414.41;;;22.12;33.82
19783;BME280;10051;40.294;-3.754;2023-04-01T14:49:39;94364.41;;;21.68;34.06
19783;BME280;10051;40.294;-3.754;2023-04-01T14:52:28;94373.66;;;21.71;34.08
19783;BME280;10051;40.294;-3.754;2023-04-01T14:54:57;94393.13;;;21.71;34.12
19783;BME280;10051;40.294;-3.754;2023-04-01T14:57:28;94392.41;;;21.58;34.21
19783;BME280;10051;40.294;-3.754;2023-04-01T15:00:01;94374.41;;;21.27;34.76
19783;BME280;10051;40.294;-3.754;2023-04-01T15:24:07;94355.69;;;21.27;34.74
19783;BME280;10051;40.294;-3.754;2023-04-01T15:35:03;94340.66;;;21.66;34.93
19783;BME280;10051;40.294;-3.754;2023-04-01T15:37:55;94341.53;;;21.71;34.41
19783;BME280;10051;40.294;-3.754;2023-04-01T15:40:45;94333.25;;;21.76;34.71
19783;BME280;10051;40.294;-3.754;2023-04-01T15:49:08;94337.22;;;21.82;34.63
19783;BME280;10051;40.294;-3.754;2023-04-01T15:54:25;94324.41;;;21.59;35.25
19783;BME280;10051;40.294;-3.754;2023-04-01T16:00:13;94306.88;;;21.30;35.80
19783;BME280;10051;40.294;-3.754;2023-04-01T16:02:48;94314.00;;;21.25;35.74
19783;BME280;10051;40.294;-3.754;2023-04-01T16:05:38;94328.22;;;21.14;36.12
19783;BME280;10051;40.294;-3.754;2023-04-01T16:11:28;94315.72;;;20.61;36.58
19783;BME280;10051;40.294;-3.754;2023-04-01T16:14:18;94331.13;;;20.52;36.87
19783;BME280;10051;40.294;-3.754;2023-04-01T16:19:41;94341.59;;;20.32;36.78
19783;BME280;10051;40.294;-3.754;2023-04-01T16:27:40;94336.69;;;20.09;37.30
19783;BME280;10051;40.294;-3.754;2023-04-01T16:30:26;94341.19;;;20.05;37.71
19783;BME280;10051;40.294;-3.754;2023-04-01T16:33:03;94341.28;;;19.96;37.21
19783;BME280;10051;40.294;-3.754;2023-04-01T16:35:53;94346.59;;;19.96;37.57
19783;BME280;10051;40.294;-3.754;2023-04-01T16:38:50;94349.63;;;19.95;37.55
19783;BME280;10051;40.294;-3.754;2023-04-01T16:41:23;94346.97;;;19.95;37.09
19783;BME280;10051;40.294;-3.754;2023-04-01T16:43:56;94325.34;;;19.75;36.61
19783;BME280;10051;40.294;-3.754;2023-04-01T16:46:36;94352.03;;;19.87;36.50
19783;BME280;10051;40.294;-3.754;2023-04-01T16:49:16;94347.56;;;19.79;36.73
19783;BME280;10051;40.294;-3.754;2023-04-01T16:57:02;94358.03;;;19.84;37.24
19783;BME280;10051;40.294;-3.754;2023-04-01T16:59:38;94359.16;;;19.83;37.29
19783;BME280;10051;40.294;-3.754;2023-04-01T17:02:13;94347.56;;;19.79;37.39
19783;BME280;10051;40.294;-3.754;2023-04-01T17:04:58;94355.13;;;19.77;37.59
19783;BME280;10051;40.294;-3.754;2023-04-01T17:21:02;94352.38;;;19.27;38.14
19783;BME280;10051;40.294;-3.754;2023-04-01T17:23:37;94372.06;;;19.35;38.22
19783;BME280;10051;40.294;-3.754;2023-04-01T17:29:15;94355.22;;;19.10;38.32
19783;BME280;10051;40.294;-3.754;2023-04-01T17:32:06;94365.91;;;19.22;38.50
19783;BME280;10051;40.294;-3.754;2023-04-01T17:40:25;94380.31;;;19.09;38.12
19783;BME280;10051;40.294;-3.754;2023-04-01T17:43:22;94369.59;;;18.96;37.02
19783;BME280;10051;40.294;-3.754;2023-04-01T17:45:55;94371.66;;;18.91;37.08
19783;BME280;10051;40.294;-3.754;2023-04-01T17:48:45;94385.88;;;18.95;36.72
19783;BME280;10051;40.294;-3.754;2023-04-01T17:51:25;94394.38;;;18.88;37.16
19783;BME280;10051;40.294;-3.754;2023-04-01T17:54:04;94393.00;;;18.82;37.19
19783;BME280;10051;40.294;-3.754;2023-04-01T17:59:41;94404.25;;;18.66;37.19
19783;BME280;10051;40.294;-3.754;2023-04-01T18:08:01;94399.69;;;18.46;37.67
19783;BME280;10051;40.294;-3.754;2023-04-01T18:13:52;94413.97;;;18.41;38.73
19783;BME280;10051;40.294;-3.754;2023-04-01T18:21:58;94364.81;;;18.08;38.70
19783;BME280;10051;40.294;-3.754;2023-04-01T18:32:26;94359.69;;;17.94;40.03
19783;BME280;10051;40.294;-3.754;2023-04-01T18:35:00;94388.53;;;18.22;39.63
19783;BME280;10051;40.294;-3.754;2023-04-01T18:37:32;94393.44;;;18.11;39.82
19783;BME280;10051;40.294;-3.754;2023-04-01T18:40:15;94406.59;;;18.17;39.97
19783;BME280;10051;40.294;-3.754;2023-04-01T18:43:12;94402.53;;;18.10;40.30
19783;BME280;10051;40.294;-3.754;2023-04-01T18:45:46;94391.59;;;18.03;40.44
19783;BME280;10051;40.294;-3.754;2023-04-01T18:51:09;94379.94;;;17.87;41.13
19783;BME280;10051;40.294;-3.754;2023-04-01T18:53:55;94363.28;;;17.60;41.42
19783;BME280;10051;40.294;-3.754;2023-04-01T18:59:08;94393.69;;;17.80;41.77
19783;BME280;10051;40.294;-3.754;2023-04-01T19:04:26;94404.41;;;17.62;42.36
19783;BME280;10051;40.294;-3.754;2023-04-01T19:06:58;94386.28;;;17.47;42.59
19783;BME280;10051;40.294;-3.754;2023-04-01T19:09:27;94356.31;;;17.29;42.88
19783;BME280;10051;40.294;-3.754;2023-04-01T19:14:39;94385.34;;;17.51;43.40
19783;BME280;10051;40.294;-3.754;2023-04-01T19:20:17;94319.19;;;17.02;43.69
19783;BME280;10051;40.294;-3.754;2023-04-01T19:23:05;94370.38;;;17.29;43.71
19783;BME280;10051;40.294;-3.754;2023-04-01T19:26:05;94348.38;;;17.11;43.70
19783;BME280;10051;40.294;-3.754;2023-04-01T19:33:52;94411.97;;;17.25;43.95
19783;BME280;10051;40.294;-3.754;2023-04-01T19:36:31;94386.66;;;17.10;44.07
19783;BME280;10051;40.294;-3.754;2023-04-01T19:39:27;94406.50;;;17.21;43.92
19783;BME280;10051;40.294;-3.754;2023-04-01T19:53:19;94420.09;;;16.93;44.29
19783;BME280;10051;40.294;-3.754;2023-04-01T19:58:48;94440.75;;;17.05;44.09
19783;BME280;10051;40.294;-3.754;2023-04-01T20:01:28;94440.91;;;17.00;44.09
19783;BME280;10051;40.294;-3.754;2023-04-01T20:04:07;94424.28;;;16.86;44.19
19783;BME280;10051;40.294;-3.754;2023-04-01T20:15:03;94466.22;;;16.98;44.05
19783;BME280;10051;40.294;-3.754;2023-04-01T20:17:44;94473.09;;;16.99;44.08
19783;BME280;10051;40.294;-3.754;2023-04-01T20:22:38;;;;17.01;
19783;BME280;10051;40.294;-3.754;2023-04-01T20:25:22;94456.47;;;16.84;44.41
19783;BME280;10051;40.294;-3.754;2023-04-01T20:33:48;94487.53;;;16.75;44.63
19783;BME280;10051;40.294;-3.754;2023-04-01T20:47:42;94496.91;;;16.72;43.26
19783;BME280;10051;40.294;-3.754;2023-04-01T20:53:23;94497.81;;;16.59;43.15
19783;BME280;10051;40.294;-3.754;2023-04-01T20:56:02;94511.72;;;16.64;43.51
19783;BME280;10051;40.294;-3.754;2023-04-01T20:58:46;94497.94;;;16.54;43.91
19783;BME280;10051;40.294;-3.754;2023-04-01T21:04:22;94521.56;;;16.64;43.82
19783;BME280;10051;40.294;-3.754;2023-04-01T21:10:29;94521.94;;;16.40;41.36
19783;BME280;10051;40.294;-3.754;2023-04-01T21:16:00;94544.13;;;16.44;39.41
19783;BME280;10051;40.294;-3.754;2023-04-01T21:29:51;94537.91;;;16.17;38.73
19783;BME280;10051;40.294;-3.754;2023-04-01T21:35:20;94535.38;;;16.12;37.41
19783;BME280;10051;40.294;-3.754;2023-04-01T21:40:48;94535.19;;;15.99;37.09
19783;BME280;10051;40.294;-3.754;2023-04-01T21:51:54;94572.72;;;15.93;37.06
19783;BME280;10051;40.294;-3.754;2023-04-01T21:54:35;94572.16;;;15.82;37.45
19783;BME280;10051;40.294;-3.754;2023-04-01T22:05:19;94584.44;;;15.55;37.80
19783;BME280;10051;40.294;-3.754;2023-04-01T22:12:54;94597.78;;;15.50;38.14
19783;BME280;10051;40.294;-3.754;2023-04-01T22:15:54;94599.09;;;15.38;38.58
19783;BME280;10051;40.294;-3.754;2023-04-01T22:18:34;94591.34;;;15.28;38.29
19783;BME280;10051;40.294;-3.754;2023-04-01T22:23:42;94588.63;;;15.19;38.92
19783;BME280;10051;40.294;-3.754;2023-04-01T22:26:28;94607.84;;;15.25;39.11
19783;BME280;10051;40.294;-3.754;2023-04-01T22:29:06;94567.28;;;14.87;38.79
19783;BME280;10051;40.294;-3.754;2023-04-01T22:31:51;94597.09;;;15.07;39.20
19783;BME280;10051;40.294;-3.754;2023-04-01T22:42:40;94629.94;;;15.06;39.33
19783;BME280;10051;40.294;-3.754;2023-04-01T22:50:23;94624.84;;;14.96;39.22
19783;BME280;10051;40.294;-3.754;2023-04-01T22:53:02;94620.31;;;14.82;39.19
19783;BME280;10051;40.294;-3.754;2023-04-01T22:55:33;94631.50;;;14.79;39.22
19783;BME280;10051;40.294;-3.754;2023-04-01T22:58:05;94645.72;;;14.83;39.39